Latest Weather Observations for Lismore Airport

IDN60801

Issued at 12:35 pm EST Tuesday 16 September 2014 (issued every 30 minutes, with the page automatically refreshed every 10 minutes)

About weather observations | Map of weather stations | Latest weather observations for NSW | Other Formats
Station Details ID: 058214 Name: LISMORE AIRPORT AWS Lat: -28.83 Lon: 153.26 Height: 9.21 m
Data from the previous 72 hours. | See also: Recent months for locations in New South Wales
Date/Time
EST
Temp
°C
App
Temp
°C
Dew
Point
Rel
Hum
%
Delta-T
°C
Wind Press
QNH
hPa
Press
MSL
hPa
Rain
since 9 am
mm
Dir
 
Spd
km/h
Gust
km/h
Spd
kts
Gust
kts
16/12:30pm 27.8 24.6 10.1 33 9.9 N 17 28 9 15 1011.1 1011.1 0.0
16/12:00pm 27.8 24.4 11.4 36 9.4 NW 20 28 11 15 1012.1 1012.1 0.0
16/11:30am 26.5 23.4 10.2 36 9.1 NNW 17 24 9 13 1012.6 1012.6 0.0
16/11:00am 26.5 25.5 13.3 44 7.7 N 11 20 6 11 1013.3 1013.3 0.0
16/10:30am 25.1 23.1 13.9 49 6.6 NNW 17 22 9 12 1014.0 1014.0 0.0
16/10:00am 23.7 22.9 14.1 55 5.6 N 11 20 6 11 1014.4 1014.4 0.0
16/09:30am 21.7 21.9 15.8 69 3.5 NE 9 13 5 7 1015.0 1015.0 0.0
16/09:00am 19.5 20.3 14.7 74 2.8 NNW 4 9 2 5 1015.6 1015.6 0.0
16/08:30am 17.5 17.9 15.3 87 1.3 N 7 11 4 6 1015.8 1015.8 0.0
16/08:07am 15.8 15.6 14.7 93 0.6 N 9 13 5 7 1015.8 1015.8 0.0
16/08:00am 15.7 15.7 15.1 96 0.3 N 9 15 5 8 1015.8 1015.8 0.0
16/07:36am 14.4 13.3 14.2 99 0.1 NNW 13 15 7 8 1015.8 1015.8 0.0
16/07:30am 14.3 13.1 14.1 99 0.1 NNW 13 15 7 8 1015.8 1015.8 0.0
16/07:00am 13.2 11.7 13.0 99 0.1 N 13 15 7 8 1015.8 1015.8 0.0
16/06:49am 13.1 11.5 12.9 99 0.1 N 13 15 7 8 1015.8 1015.8 0.0
16/06:40am 12.9 11.3 12.7 99 0.1 NW 13 15 7 8 1015.7 1015.7 0.0
16/06:30am 12.9 11.3 12.7 99 0.1 N 13 15 7 8 1015.7 1015.7 0.0
16/06:00am 12.7 11.4 12.5 99 0.1 N 11 15 6 8 1015.7 1015.7 0.0
16/05:30am 12.8 11.9 12.6 99 0.1 N 9 13 5 7 1015.6 1015.6 0.0
16/05:16am 13.0 11.4 12.8 99 0.1 NNW 13 17 7 9 1015.4 1015.4 0.0
16/05:00am 13.1 12.7 12.9 99 0.1 N 7 11 4 6 1015.4 1015.4 0.0
16/04:30am 13.8 12.5 13.6 99 0.1 N 13 15 7 8 1015.5 1015.5 0.0
16/04:00am 14.1 12.5 13.9 99 0.1 NNW 15 20 8 11 1015.3 1015.3 0.0
16/03:30am 14.0 13.1 13.7 98 0.2 NNW 11 13 6 7 1015.2 1015.2 0.0
16/03:00am 14.7 14.1 14.5 99 0.1 N 11 13 6 7 1015.1 1015.1 0.0
16/02:30am 15.0 14.8 14.8 99 0.1 N 9 15 5 8 1015.2 1015.2 0.0
16/02:00am 15.0 14.8 14.8 99 0.1 N 9 13 5 7 1015.4 1015.4 0.0
16/01:30am 14.8 14.6 14.6 99 0.1 N 9 13 5 7 1015.5 1015.5 0.0
16/01:03am 13.6 13.5 13.4 99 0.1 N 6 7 3 4 1015.8 1015.8 0.0
16/01:00am 13.4 13.3 13.2 99 0.1 N 6 7 3 4 1015.8 1015.8 0.0
16/12:30am 14.0 13.5 13.8 99 0.1 N 9 13 5 7 1015.8 1015.8 0.0
16/12:00am 14.2 13.8 14.0 99 0.1 N 9 13 5 7 1016.1 1016.1 0.0
 
Date/Time
EST
Temp
°C
App
Temp
°C
Dew
Point
Rel
Hum
%
Delta-T
°C
Wind Press
QNH
hPa
Press
MSL
hPa
Rain
since 9 am
mm
Dir
 
Spd
km/h
Gust
km/h
Spd
kts
Gust
kts
15/11:30pm 14.0 12.7 13.8 99 0.1 NNW 13 15 7 8 1016.3 1016.3 0.0
15/11:00pm 14.7 16.1 14.5 99 0.1 CALM 0 0 0 0 1016.3 1016.3 0.0
15/10:30pm 14.4 15.7 14.2 99 0.1 CALM 0 0 0 0 1016.3 1016.3 0.0
15/10:00pm 13.5 14.5 13.3 99 0.1 CALM 0 0 0 0 1016.4 1016.4 0.0
15/09:56pm 14.2 15.5 14.0 99 0.1 CALM 0 0 0 0 1016.4 1016.4 0.0
15/09:40pm 14.0 15.1 13.4 96 0.3 CALM 0 0 0 0 1016.4 1016.4 0.0
15/09:30pm 14.4 15.6 13.9 97 0.3 CALM 0 0 0 0 1016.2 1016.2 0.0
15/09:00pm 15.4 17.0 14.8 96 0.3 CALM 0 0 0 0 1016.2 1016.2 0.0
15/08:30pm 15.8 17.4 15.0 95 0.5 CALM 0 0 0 0 1016.1 1016.1 0.0
15/08:00pm 16.5 18.2 15.2 92 0.8 CALM 0 0 0 0 1015.8 1015.8 0.0
15/07:30pm 16.1 16.4 14.5 90 0.9 SSE 6 7 3 4 1015.4 1015.4 0.0
15/07:00pm 16.4 17.8 14.4 88 1.1 CALM 0 0 0 0 1015.1 1015.1 0.0
15/06:30pm 17.2 17.8 13.1 77 2.3 W 2 7 1 4 1014.7 1014.7 0.0
15/06:00pm 19.3 20.3 14.3 73 2.9 SE 2 9 1 5 1014.4 1014.4 0.0
15/05:30pm 20.7 20.0 14.4 67 3.7 ENE 11 15 6 8 1013.8 1013.8 0.0
15/05:00pm 21.9 21.1 15.0 65 4.1 NE 13 19 7 10 1013.8 1013.8 0.0
15/04:30pm 22.3 21.0 12.5 53 5.6 ESE 11 17 6 9 1013.9 1013.9 0.0
15/04:00pm 21.8 18.9 12.4 55 5.3 S 19 24 10 13 1014.1 1014.1 0.0
15/03:30pm 22.4 19.7 10.2 46 6.7 E 15 20 8 11 1013.5 1013.5 0.0
15/03:00pm 21.7 18.2 12.3 55 5.3 SE 22 35 12 19 1013.6 1013.6 0.0
15/02:45pm 21.2 16.7 13.9 63 4.2 SSE 30 37 16 20 1013.6 1013.6 0.0
15/02:39pm 21.3 15.2 14.2 64 4.1 S 39 46 21 25 1013.7 1013.7 0.0
15/02:30pm 24.0 19.3 13.2 50 6.3 SSW 30 43 16 23 1013.5 1013.5 0.0
15/02:28pm 24.1 19.7 13.0 50 6.4 SSW 28 43 15 23 1013.5 1013.5 0.0
15/02:00pm 26.7 26.0 10.0 35 9.3 SE 4 7 2 4 1013.0 1013.0 0.0
15/01:30pm 28.0 25.6 10.2 33 10.0 NW 13 20 7 11 1013.6 1013.6 0.0
15/01:00pm 27.3 24.8 9.6 33 9.8 NW 13 17 7 9 1014.2 1014.2 0.0
15/12:30pm 26.8 24.4 11.3 38 8.8 WNW 15 22 8 12 1014.8 1014.8 0.0
15/12:00pm 26.4 23.5 12.8 43 7.9 NW 20 26 11 14 1015.4 1015.4 0.0
15/11:30am 26.2 23.3 12.3 42 8.0 NW 19 28 10 15 1016.1 1016.1 0.0
15/11:00am 25.4 23.8 13.9 49 6.8 NW 15 22 8 12 1016.6 1016.6 0.0
15/10:30am 23.7 22.4 13.8 53 5.8 NNW 13 20 7 11 1017.1 1017.1 0.0
15/10:00am 22.2 21.3 13.8 59 4.9 N 11 17 6 9 1017.5 1017.5 0.0
15/09:30am 20.9 19.3 12.8 60 4.6 NNW 13 20 7 11 1018.0 1018.0 0.0
15/09:00am 18.1 16.9 14.0 77 2.3 N 13 15 7 8 1018.3 1018.3 0.0
15/08:30am 15.9 15.4 13.7 87 1.2 N 9 13 5 7 1018.6 1018.6 0.0
15/08:00am 14.2 12.6 12.9 92 0.7 NNW 13 15 7 8 1018.7 1018.7 0.0
15/07:30am 13.2 12.4 13.0 99 0.1 N 9 11 5 6 1018.6 1018.6 0.0
15/07:00am 11.6 10.3 11.4 99 0.1 N 9 13 5 7 1018.6 1018.6 0.0
15/06:30am 10.9 7.9 10.7 99 0.1 N 17 19 9 10 1018.4 1018.4 0.0
15/06:00am 10.3 7.9 10.1 99 0.1 N 13 15 7 8 1018.2 1018.2 0.0
15/05:30am 10.2 7.8 10.0 99 0.1 N 13 15 7 8 1017.7 1017.7 0.0
15/05:26am 10.1 7.7 9.9 99 0.1 N 13 17 7 9 1017.7 1017.7 0.0
15/05:00am 9.9 7.8 9.8 99 0.1 N 11 13 6 7 1017.6 1017.6 0.0
15/04:48am 9.6 7.0 9.5 99 0.0 N 13 15 7 8 1017.4 1017.4 0.0
15/04:46am 9.7 7.2 9.6 99 0.0 N 13 15 7 8 1017.4 1017.4 0.0
15/04:39am 10.5 8.5 10.3 99 0.1 N 11 13 6 7 1017.3 1017.3 0.0
15/04:35am 10.5 9.3 10.3 99 0.1 N 7 13 4 7 1017.3 1017.3 0.0
15/04:30am 10.1 9.7 9.9 99 0.1 N 2 11 1 6 1017.3 1017.3 0.0
15/04:00am 8.6 8.3 8.5 99 0.0 CALM 0 0 0 0 1017.3 1017.3 0.0
15/03:54am 8.8 8.5 8.7 99 0.0 CALM 0 6 0 3 1017.3 1017.3 0.0
15/03:47am 8.7 7.2 8.6 99 0.0 N 6 9 3 5 1017.2 1017.2 0.0
15/03:30am 9.5 9.4 9.4 99 0.0 CALM 0 0 0 0 1017.1 1017.1 0.0
15/03:28am 9.5 9.4 9.4 99 0.0 CALM 0 0 0 0 1017.1 1017.1 0.0
15/03:12am 10.0 8.7 9.9 99 0.1 N 7 11 4 6 1017.1 1017.1 0.0
15/03:01am 10.6 8.7 10.4 99 0.1 N 11 13 6 7 1017.1 1017.1 0.0
15/03:00am 10.7 8.8 10.5 99 0.1 N 11 13 6 7 1017.1 1017.1 0.0
15/02:43am 10.6 9.4 10.4 99 0.1 N 7 11 4 6 1017.0 1017.0 0.0
15/02:30am 11.0 9.2 10.8 99 0.1 N 11 13 6 7 1017.1 1017.1 0.0
15/02:00am 11.3 9.6 11.1 99 0.1 N 11 13 6 7 1017.3 1017.3 0.0
15/01:30am 11.5 9.8 11.3 99 0.1 N 11 13 6 7 1017.7 1017.7 0.0
15/01:00am 12.1 10.6 11.9 99 0.1 N 11 11 6 6 1017.8 1017.8 0.0
15/12:30am 11.8 11.2 11.6 99 0.1 N 6 13 3 7 1018.2 1018.2 0.0
15/12:00am 12.0 10.8 11.5 97 0.3 NNW 9 13 5 7 1018.3 1018.3 0.0
 
Date/Time
EST
Temp
°C
App
Temp
°C
Dew
Point
Rel
Hum
%
Delta-T
°C
Wind Press
QNH
hPa
Press
MSL
hPa
Rain
since 9 am
mm
Dir
 
Spd
km/h
Gust
km/h
Spd
kts
Gust
kts
14/11:30pm 12.8 11.5 12.6 99 0.1 N 11 13 6 7 1018.6 1018.6 0.0
14/11:00pm 12.6 11.2 12.3 98 0.2 N 11 13 6 7 1018.6 1018.6 0.0
14/10:30pm 13.1 11.7 12.3 95 0.4 NNW 11 13 6 7 1018.8 1018.8 0.0
14/10:00pm 13.3 11.3 11.5 89 1.0 N 13 13 7 7 1018.8 1018.8 0.0
14/09:30pm 14.2 12.5 12.4 89 1.0 N 13 17 7 9 1018.8 1018.8 0.0
14/09:00pm 14.4 12.5 11.9 85 1.3 N 13 13 7 7 1018.8 1018.8 0.0
14/08:37pm 16.0 14.7 12.4 79 2.0 N 11 15 6 8 1018.8 1018.8 0.0
14/08:30pm 16.4 14.7 12.6 78 2.1 N 13 15 7 8 1018.8 1018.8 0.0
14/08:17pm 16.7 15.1 12.7 77 2.2 NNE 13 17 7 9 1018.8 1018.8 0.0
14/08:00pm 17.1 15.1 12.6 75 2.5 NNE 15 20 8 11 1018.7 1018.7 0.0
14/07:30pm 17.5 15.5 12.8 74 2.6 NNE 15 22 8 12 1018.5 1018.5 0.0
14/07:00pm 17.9 15.2 12.8 72 2.8 NNE 19 26 10 14 1018.1 1018.1 0.0
14/06:30pm 18.2 15.5 12.9 71 3.0 NE 19 24 10 13 1017.9 1017.9 0.0
14/06:00pm 18.8 15.9 12.8 68 3.4 NE 20 26 11 14 1017.8 1017.8 0.0
14/05:30pm 19.5 16.5 12.7 65 3.8 NE 20 30 11 16 1017.8 1017.8 0.0
14/05:00pm 20.7 17.1 12.9 61 4.4 NE 24 33 13 18 1017.6 1017.6 0.0
14/04:30pm 21.6 18.0 13.0 58 4.9 NE 24 32 13 17 1017.7 1017.7 0.0
14/04:00pm 22.4 18.6 13.5 57 5.1 NE 26 33 14 18 1017.7 1017.7 0.0
14/03:30pm 22.8 19.4 13.6 56 5.3 ENE 24 33 13 18 1017.7 1017.7 0.0
14/03:00pm 23.7 20.8 14.1 55 5.6 NE 22 32 12 17 1017.9 1017.9 0.0
14/02:30pm 24.7 21.3 14.8 54 5.9 NE 26 37 14 20 1018.2 1018.2 0.0
14/02:00pm 24.6 22.3 12.9 48 6.8 ENE 17 28 9 15 1018.5 1018.5 0.0
14/01:30pm 24.0 21.6 11.3 45 7.1 NNE 15 24 8 13 1018.9 1018.9 0.0
14/01:00pm 24.3 22.9 12.3 47 6.8 NNE 11 22 6 12 1019.4 1019.4 0.0
14/12:30pm 23.5 21.7 12.2 49 6.4 NNE 13 22 7 12 1019.9 1019.9 0.0
14/12:00pm 22.9 21.0 11.9 50 6.2 NW 13 19 7 10 1020.6 1020.6 0.0
14/11:30am 22.5 20.7 12.2 52 5.8 NW 13 20 7 11 1021.1 1021.1 0.0
14/11:00am 21.7 20.5 11.7 53 5.6 NW 9 17 5 9 1021.6 1021.6 0.0
14/10:30am 21.1 20.5 11.7 55 5.2 N 6 15 3 8 1022.2 1022.2 0.0
14/10:00am 20.2 19.6 12.4 61 4.4 E 7 15 4 8 1022.6 1022.6 0.0
14/09:30am 19.1 19.1 13.5 70 3.2 W 6 11 3 6 1023.0 1023.0 0.0
14/09:00am 17.3 17.7 13.8 80 2.0 WNW 4 7 2 4 1023.3 1023.3 0.0
14/08:30am 14.8 14.2 13.5 92 0.7 N 9 15 5 8 1023.3 1023.3 0.0
14/08:16am 13.7 13.2 13.7 100 0.0 NNE 9 13 5 7 1023.5 1023.5 0.0
14/08:00am 12.7 12.2 12.7 100 0.0 N 7 11 4 6 1023.5 1023.5 0.0
14/07:55am 12.7 11.8 12.7 100 0.0 N 9 11 5 6 1023.6 1023.6 0.0
14/07:30am 11.7 10.1 11.7 100 0.0 N 11 15 6 8 1023.5 1023.5 0.0
14/07:25am 11.6 10.0 11.6 100 0.0 N 11 15 6 8 1023.5 1023.5 0.0
14/07:00am 10.9 8.7 10.9 100 0.0 N 13 15 7 8 1023.3 1023.3 0.0
14/06:30am 10.5 10.7 10.5 100 0.0 CALM 0 0 0 0 1023.3 1023.3 0.0
14/06:00am 8.5 8.1 8.4 99 0.0 CALM 0 0 0 0 1023.1 1023.1 0.0
14/05:30am 9.7 9.6 9.6 99 0.0 CALM 0 0 0 0 1022.8 1022.8 0.0
14/05:00am 9.5 9.4 9.4 99 0.0 CALM 0 0 0 0 1022.6 1022.6 0.0
14/04:30am 8.5 8.1 8.4 99 0.0 CALM 0 0 0 0 1022.5 1022.5 0.0
14/04:00am 8.6 8.3 8.5 99 0.0 CALM 0 0 0 0 1022.3 1022.3 0.0
14/03:30am 9.6 9.5 9.5 99 0.0 CALM 0 0 0 0 1022.4 1022.4 0.0
14/03:00am 9.6 9.5 9.3 98 0.1 CALM 0 0 0 0 1022.7 1022.7 0.0
14/02:52am 9.9 9.8 9.6 98 0.1 CALM 0 0 0 0 1022.8 1022.8 0.0
14/02:35am 10.0 9.9 9.5 97 0.2 CALM 0 0 0 0 1023.0 1023.0 0.0
14/02:32am 10.9 11.1 10.7 99 0.1 CALM 0 0 0 0 1023.0 1023.0 0.0
14/02:30am 11.1 11.4 10.9 99 0.1 CALM 0 0 0 0 1023.0 1023.0 0.0
14/02:09am 10.7 10.6 9.6 93 0.6 CALM 0 0 0 0 1023.2 1023.2 0.0
14/02:00am 11.5 11.7 10.6 94 0.5 CALM 0 0 0 0 1023.3 1023.3 0.0
14/01:47am 12.2 12.6 11.4 95 0.4 CALM 0 0 0 0 1023.5 1023.5 0.0
14/01:30am 12.2 12.5 10.8 91 0.7 CALM 0 0 0 0 1023.5 1023.5 0.0
14/01:00am 13.2 13.8 11.8 91 0.7 CALM 0 0 0 0 1023.8 1023.8 0.0
14/12:30am 13.6 14.3 12.2 91 0.8 CALM 0 0 0 0 1024.1 1024.1 0.0
14/12:00am 13.8 13.4 12.5 92 0.7 SSE 6 7 3 4 1024.2 1024.2 0.0
 
Date/Time
EST
Temp
°C
App
Temp
°C
Dew
Point
Rel
Hum
%
Delta-T
°C
Wind Press
QNH
hPa
Press
MSL
hPa
Rain
since 9 am
mm
Dir
 
Spd
km/h
Gust
km/h
Spd
kts
Gust
kts
13/11:30pm 13.9 14.7 12.5 91 0.8 CALM 0 0 0 0 1024.3 1024.3 0.0
13/11:00pm 13.8 12.8 12.4 91 0.8 W 9 13 5 7 1024.4 1024.4 0.0
13/10:30pm 13.5 13.4 12.1 91 0.8 SSW 4 13 2 7 1024.2 1024.2 0.0
13/10:00pm 13.6 12.5 11.8 89 1.0 WSW 9 17 5 9 1024.1 1024.1 0.0
13/09:30pm 14.6 13.1 11.9 84 1.5 S 11 15 6 8 1024.0 1024.0 0.0
13/09:00pm 15.8 14.1 12.5 81 1.8 NE 13 15 7 8 1023.8 1023.8 0.0
13/08:30pm 15.7 14.0 12.5 81 1.8 N 13 17 7 9 1024.4 1024.4 0.0
13/08:00pm 15.8 14.0 12.0 78 2.1 W 13 17 7 9 1024.8 1024.8 0.0
13/07:30pm 16.9 15.5 13.4 80 2.0 SW 13 17 7 9 1024.8 1024.8 0.0
13/07:00pm 16.6 16.8 12.9 79 2.0 SE 4 9 2 5 1024.4 1024.4 0.0
13/06:30pm 16.2 15.8 13.1 82 1.7 SE 7 7 4 4 1024.0 1024.0 0.0
13/06:00pm 17.4 16.6 12.9 75 2.5 ESE 9 13 5 7 1023.8 1023.8 0.0
13/05:30pm 18.2 17.4 12.9 71 3.0 E 9 15 5 8 1023.2 1023.2 0.0
13/05:00pm 18.7 17.3 13.3 71 3.0 E 13 20 7 11 1022.6 1022.6 0.0
13/04:30pm 19.5 16.7 13.2 67 3.6 ENE 20 32 11 17 1022.4 1022.4 0.0
13/04:00pm 20.6 18.3 13.1 62 4.3 E 17 28 9 15 1022.3 1022.3 0.0
13/03:30pm 20.1 17.3 13.3 65 3.9 E 20 26 11 14 1022.1 1022.1 0.0
13/03:00pm 21.3 18.3 12.4 57 5.0 E 20 28 11 15 1022.1 1022.1 0.0
13/02:30pm 22.0 18.9 13.4 58 5.0 NNE 22 33 12 18 1022.0 1022.0 0.0
13/02:00pm 22.4 19.1 11.5 50 6.1 NE 20 26 11 14 1022.3 1022.3 0.0
13/01:30pm 22.1 20.3 12.1 53 5.6 ENE 13 24 7 13 1022.7 1022.7 0.0
13/01:00pm 21.0 18.5 12.4 58 4.8 E 17 22 9 12 1022.9 1022.9 0.0

Other Formats:

Comma delimited format used in spreadsheet applications
http://www.bom.gov.au/fwo/IDN60801/IDN60801.94572.axf

JavaScript Object Notation format (JSON) in row-major order
http://www.bom.gov.au/fwo/IDN60801/IDN60801.94572.json